createdAt,value
2019-03-23T00:01:56.848Z,51.50
2019-03-23T00:04:03.414Z,56.03
2019-03-23T00:06:09.759Z,56.27
2019-03-23T00:08:17.715Z,53.00
2019-03-23T00:10:24.150Z,57.57
2019-03-23T00:12:30.501Z,54.97
2019-03-23T00:14:37.163Z,52.83
2019-03-23T00:16:43.551Z,51.73
2019-03-23T00:18:52.658Z,61.77
2019-03-23T00:21:00.036Z,55.03
2019-03-23T00:23:06.628Z,50.93
2019-03-23T00:25:14.285Z,59.23
2019-03-23T00:27:21.078Z,54.77
2019-03-23T00:29:27.657Z,50.10
2019-03-23T00:31:36.163Z,53.17
2019-03-23T00:33:42.939Z,60.57
2019-03-23T00:35:49.603Z,57.67
2019-03-23T00:37:56.073Z,60.30
2019-03-23T00:40:02.450Z,70.27
2019-03-23T00:42:09.229Z,62.40
2019-03-23T00:44:15.786Z,66.03
2019-03-23T00:46:22.266Z,59.97
2019-03-23T00:48:30.340Z,56.80
2019-03-23T00:50:36.967Z,56.87
2019-03-23T00:52:43.788Z,59.93
2019-03-23T00:54:50.141Z,58.93
2019-03-23T00:56:56.523Z,55.43
2019-03-23T00:59:04.614Z,59.17
2019-03-23T01:01:12.422Z,55.17
2019-03-23T01:03:20.712Z,57.63
2019-03-23T01:05:28.729Z,61.00
2019-03-23T01:07:35.091Z,50.30
2019-03-23T01:09:41.644Z,62.03
2019-03-23T01:11:48.004Z,55.70
2019-03-23T01:13:55.805Z,60.33
2019-03-23T01:16:02.163Z,53.50
2019-03-23T01:18:08.529Z,54.53
2019-03-23T01:20:15.725Z,55.13
2019-03-23T01:22:22.077Z,57.33
2019-03-23T01:24:28.844Z,53.27
2019-03-23T01:26:35.209Z,61.30
2019-03-23T01:28:43.197Z,54.93
2019-03-23T01:30:51.395Z,55.07
2019-03-23T01:32:57.983Z,52.47
2019-03-23T01:35:05.375Z,57.77
2019-03-23T01:37:11.741Z,55.77
2019-03-23T01:39:18.183Z,57.93
2019-03-23T01:41:24.881Z,68.20
2019-03-23T01:43:31.321Z,60.30
2019-03-23T01:45:37.697Z,58.77
2019-03-23T01:47:44.059Z,57.17
2019-03-23T01:49:51.633Z,65.57
2019-03-23T01:51:58.285Z,67.27
2019-03-23T01:54:04.883Z,50.97
2019-03-23T01:56:11.553Z,58.77
2019-03-23T01:58:18.226Z,56.37
2019-03-23T02:00:24.667Z,57.27
2019-03-23T02:02:31.368Z,67.93
2019-03-23T02:04:37.731Z,64.40
2019-03-23T02:06:44.276Z,65.00
2019-03-23T02:08:50.648Z,62.73
2019-03-23T02:10:58.852Z,68.50
2019-03-23T02:13:05.530Z,63.00
2019-03-23T02:15:14.079Z,62.60
2019-03-23T02:17:20.412Z,70.13
2019-03-23T02:19:27.072Z,68.57
2019-03-23T02:21:35.177Z,70.27
2019-03-23T02:23:43.382Z,73.97
2019-03-23T02:25:49.834Z,69.43
2019-03-23T02:27:56.411Z,78.10
2019-03-23T02:30:02.978Z,75.40
2019-03-23T02:32:09.395Z,64.53
2019-03-23T02:34:16.611Z,68.70
2019-03-23T02:36:23.006Z,77.93
2019-03-23T02:38:29.363Z,83.27
2019-03-23T02:40:35.704Z,75.10
2019-03-23T02:42:42.286Z,75.17
2019-03-23T02:44:50.600Z,66.10
2019-03-23T02:46:57.055Z,80.03
2019-03-23T02:49:03.625Z,81.07
2019-03-23T02:51:11.045Z,79.53
2019-03-23T02:53:17.452Z,73.40
2019-03-23T02:55:24.363Z,90.80
2019-03-23T02:57:30.814Z,77.63
2019-03-23T02:59:37.697Z,76.20
2019-03-23T03:01:44.054Z,83.87
2019-03-23T03:03:50.574Z,75.67
2019-03-23T03:05:58.411Z,70.77
2019-03-23T03:08:05.005Z,66.63
2019-03-23T03:10:14.889Z,59.43
2019-03-23T03:12:21.497Z,56.13
2019-03-23T03:14:28.367Z,54.33
2019-03-23T03:16:35.052Z,62.93
2019-03-23T03:18:41.559Z,56.70
2019-03-23T03:20:47.965Z,59.43
2019-03-23T03:22:56.073Z,54.53
2019-03-23T03:25:02.445Z,53.03
2019-03-23T03:27:08.912Z,54.97
2019-03-23T03:29:15.560Z,54.80
2019-03-23T03:31:21.967Z,52.00
2019-03-23T03:33:28.417Z,55.33
2019-03-23T03:35:35.062Z,55.13
2019-03-23T03:37:55.380Z,53.53
2019-03-23T03:39:50.738Z,54.33
2019-03-23T03:41:57.574Z,49.73
2019-03-23T03:44:04.530Z,62.83
2019-03-23T03:46:11.361Z,47.30
2019-03-23T03:48:18.108Z,61.00
2019-03-23T03:50:26.157Z,56.60
2019-03-23T03:52:34.077Z,53.67
2019-03-23T03:54:40.904Z,53.20
2019-03-23T03:56:47.750Z,56.30
2019-03-23T03:58:54.823Z,61.37
2019-03-23T04:01:01.355Z,57.73
2019-03-23T04:03:07.735Z,53.60
2019-03-23T04:05:14.689Z,47.67
2019-03-23T04:07:21.566Z,49.93
2019-03-23T04:09:31.730Z,57.00
2019-03-23T04:11:38.464Z,50.17
2019-03-23T04:13:45.157Z,46.10
2019-03-23T04:15:52.036Z,52.57
2019-03-23T04:17:58.914Z,44.30
2019-03-23T04:20:08.175Z,55.30
2019-03-23T04:22:14.999Z,51.17
2019-03-23T04:24:21.460Z,47.73
2019-03-23T04:26:28.137Z,47.43
2019-03-23T04:28:34.680Z,45.60
2019-03-23T04:30:43.123Z,43.43
2019-03-23T04:32:49.896Z,50.83
2019-03-23T04:34:56.770Z,40.73
2019-03-23T04:37:03.365Z,40.30
2019-03-23T04:39:10.214Z,44.83
2019-03-23T04:41:16.589Z,43.93
2019-03-23T04:43:25.796Z,40.90
2019-03-23T04:45:32.163Z,42.40
2019-03-23T04:47:39.337Z,40.07
2019-03-23T04:49:45.708Z,38.53
2019-03-23T04:54:00.279Z,35.73
2019-03-23T04:56:07.255Z,41.97
2019-03-23T04:58:13.927Z,36.67
2019-03-23T05:00:21.546Z,42.50
2019-03-23T05:02:28.837Z,42.83
2019-03-23T05:04:35.479Z,44.53
2019-03-23T05:06:42.634Z,41.63
2019-03-23T05:08:49.217Z,40.43
2019-03-23T05:10:55.672Z,43.87
2019-03-23T05:13:03.738Z,47.63
2019-03-23T05:15:11.376Z,46.50
2019-03-23T05:17:18.034Z,44.27
2019-03-23T05:19:24.625Z,41.20
2019-03-23T05:21:31.282Z,40.87
2019-03-23T05:23:39.693Z,48.23
2019-03-23T05:25:46.255Z,40.87
2019-03-23T05:27:52.624Z,44.20
2019-03-23T05:29:59.277Z,44.87
2019-03-23T05:32:06.887Z,42.70
2019-03-23T05:34:13.557Z,52.60
2019-03-23T05:36:20.019Z,45.80
2019-03-23T05:38:26.786Z,44.93
2019-03-23T05:40:33.133Z,45.47
2019-03-23T05:42:39.628Z,49.63
2019-03-23T05:44:46.189Z,44.00
2019-03-23T05:46:54.346Z,41.80
2019-03-23T05:49:00.740Z,43.13
2019-03-23T05:51:08.657Z,41.07
2019-03-23T05:53:15.194Z,38.67
2019-03-23T05:55:22.198Z,37.43
2019-03-23T05:57:28.975Z,35.67
2019-03-23T05:59:35.621Z,40.13
2019-03-23T06:01:42.030Z,40.33
2019-03-23T06:03:49.572Z,38.90
2019-03-23T06:05:57.183Z,36.27
2019-03-23T06:08:03.547Z,38.60
2019-03-23T06:10:10.330Z,37.30
2019-03-23T06:12:18.417Z,34.87
2019-03-23T06:14:24.851Z,34.77
2019-03-23T06:16:33.499Z,33.47
2019-03-23T06:18:39.874Z,38.13
2019-03-23T06:20:46.504Z,33.17
2019-03-23T06:22:54.333Z,37.33
2019-03-23T06:25:01.131Z,32.80
2019-03-23T06:27:08.065Z,37.23
2019-03-23T06:29:14.765Z,31.47
2019-03-23T06:31:22.369Z,32.40
2019-03-23T06:33:28.971Z,33.30
2019-03-23T06:35:35.238Z,32.97
2019-03-23T06:37:41.941Z,31.30
2019-03-23T06:39:48.498Z,33.70
2019-03-23T06:41:55.068Z,39.67
2019-03-23T06:44:01.833Z,37.30
2019-03-23T06:46:09.828Z,35.63
2019-03-23T06:48:16.508Z,33.80
2019-03-23T06:50:22.978Z,36.60
2019-03-23T06:52:31.007Z,32.60
2019-03-23T06:54:37.787Z,37.53
2019-03-23T06:56:44.425Z,39.80
2019-03-23T06:58:52.648Z,35.33
2019-03-23T07:00:59.607Z,31.53
2019-03-23T07:03:06.702Z,33.73
2019-03-23T07:05:13.876Z,34.73
2019-03-23T07:07:21.779Z,38.03
2019-03-23T07:09:28.434Z,31.70
2019-03-23T07:11:35.001Z,41.27
2019-03-23T07:13:42.606Z,28.37
2019-03-23T07:15:49.356Z,36.67
2019-03-23T07:17:55.934Z,31.20
2019-03-23T07:20:04.232Z,31.47
2019-03-23T07:22:11.725Z,28.60
2019-03-23T07:24:18.303Z,27.80
2019-03-23T07:26:24.852Z,29.30
2019-03-23T07:28:31.543Z,31.70
2019-03-23T07:30:39.943Z,26.63
2019-03-23T07:32:48.874Z,30.67
2019-03-23T07:34:55.542Z,47.30
2019-03-23T07:37:03.447Z,41.70
2019-03-23T07:39:27.305Z,38.57
2019-03-23T07:41:29.986Z,34.83
2019-03-23T07:43:36.763Z,30.80
2019-03-23T07:45:43.339Z,33.90
2019-03-23T07:47:50.203Z,38.83
2019-03-23T07:49:56.680Z,32.70
2019-03-23T07:52:03.431Z,37.10
2019-03-23T07:54:09.804Z,30.33
2019-03-23T07:56:17.803Z,32.23
2019-03-23T07:58:24.574Z,28.30
2019-03-23T08:00:33.195Z,31.00
2019-03-23T08:02:40.163Z,39.43
2019-03-23T08:04:48.575Z,30.80
2019-03-23T08:06:57.203Z,31.47
2019-03-23T08:09:19.951Z,33.30
2019-03-23T08:11:18.513Z,29.43
2019-03-23T08:13:25.525Z,28.77
2019-03-23T08:15:32.269Z,30.00
2019-03-23T08:17:39.863Z,30.80
2019-03-23T08:19:46.409Z,34.13
2019-03-23T08:21:55.155Z,30.73
2019-03-23T08:24:01.606Z,26.87
2019-03-23T08:26:08.335Z,33.60
2019-03-23T08:28:14.737Z,32.13
2019-03-23T08:30:23.146Z,34.80
2019-03-23T08:32:30.583Z,30.00
2019-03-23T08:34:37.105Z,30.67
2019-03-23T08:36:44.136Z,27.00
2019-03-23T08:38:53.298Z,29.37
2019-03-23T08:41:07.622Z,32.20
2019-03-23T08:43:23.884Z,30.23
2019-03-23T08:48:01.263Z,32.03
2019-03-23T08:50:11.105Z,31.67
2019-03-23T08:52:19.924Z,33.27
2019-03-23T08:54:29.482Z,37.47
2019-03-23T08:56:37.463Z,36.40
2019-03-23T08:58:42.728Z,38.50
2019-03-23T09:00:49.261Z,34.67
2019-03-23T09:02:55.947Z,36.17
2019-03-23T09:05:02.819Z,37.57
2019-03-23T09:07:10.301Z,33.37
2019-03-23T09:09:17.071Z,38.37
2019-03-23T09:11:24.137Z,39.17
2019-03-23T09:13:40.272Z,36.10
2019-03-23T09:15:39.128Z,42.73
2019-03-23T09:17:45.496Z,37.90
2019-03-23T09:19:52.076Z,40.87
2019-03-23T09:21:58.583Z,44.13
2019-03-23T09:24:05.354Z,40.17
2019-03-23T09:26:13.779Z,47.73
2019-03-23T09:28:20.176Z,45.53
2019-03-23T09:30:27.254Z,45.37
2019-03-23T09:32:33.814Z,46.67
2019-03-23T09:34:41.500Z,42.70
2019-03-23T09:36:48.188Z,47.47
2019-03-23T09:38:54.640Z,44.57
2019-03-23T09:41:02.841Z,52.37
2019-03-23T09:43:09.421Z,52.03
2019-03-23T09:45:16.190Z,50.33
2019-03-23T09:47:23.580Z,69.00
2019-03-23T09:49:30.252Z,55.57
2019-03-23T09:51:37.039Z,63.57
2019-03-23T09:53:43.681Z,71.53
2019-03-23T09:55:50.457Z,57.77
2019-03-23T09:57:57.038Z,53.13
2019-03-23T10:00:04.822Z,50.13
2019-03-23T10:02:11.811Z,47.90
2019-03-23T10:04:19.492Z,53.37
2019-03-23T10:06:26.062Z,50.80
2019-03-23T10:08:32.701Z,48.70
2019-03-23T10:10:39.412Z,51.70
2019-03-23T10:12:46.091Z,44.80
2019-03-23T10:14:52.961Z,51.00
2019-03-23T10:16:59.504Z,48.90
2019-03-23T10:19:08.003Z,44.37
2019-03-23T10:21:14.397Z,45.63
2019-03-23T10:23:20.967Z,45.60
2019-03-23T10:25:27.660Z,48.30
2019-03-23T10:27:34.507Z,53.03
2019-03-23T10:29:42.381Z,54.17
2019-03-23T10:31:48.957Z,45.83
2019-03-23T10:33:55.531Z,46.17
2019-03-23T10:36:02.401Z,48.83
2019-03-23T10:38:08.761Z,45.40
2019-03-23T10:40:15.862Z,46.73
2019-03-23T10:42:22.510Z,44.73
2019-03-23T10:44:29.383Z,45.67
2019-03-23T10:46:37.092Z,48.07
2019-03-23T10:48:43.647Z,41.57
2019-03-23T10:50:50.421Z,49.70
2019-03-23T10:52:56.800Z,49.10
2019-03-23T10:55:03.452Z,52.40
2019-03-23T10:57:09.821Z,45.80
2019-03-23T10:59:16.391Z,49.37
2019-03-23T11:01:23.365Z,47.70
2019-03-23T11:03:29.808Z,53.27
2019-03-23T11:05:36.407Z,47.67
2019-03-23T11:07:44.525Z,47.43
2019-03-23T11:09:51.074Z,42.07
2019-03-23T11:11:58.052Z,50.40
2019-03-23T11:14:04.411Z,49.70
2019-03-23T11:16:11.281Z,46.87
2019-03-23T11:18:17.630Z,49.90
2019-03-23T11:20:24.014Z,44.93
2019-03-23T11:22:32.109Z,43.30
2019-03-23T11:24:38.591Z,49.07
2019-03-23T11:26:46.871Z,42.53
2019-03-23T11:28:53.250Z,43.87
2019-03-23T11:31:01.029Z,43.00
2019-03-23T11:33:09.401Z,41.73
2019-03-23T11:35:16.059Z,51.10
2019-03-23T11:37:22.797Z,46.07
2019-03-23T11:39:29.161Z,44.03
2019-03-23T11:41:36.653Z,45.90
2019-03-23T11:43:43.837Z,52.60
2019-03-23T11:45:50.511Z,46.10
2019-03-23T11:47:56.870Z,45.37
2019-03-23T11:50:03.931Z,41.77
2019-03-23T11:52:11.332Z,47.17
2019-03-23T11:54:22.597Z,46.10
2019-03-23T11:56:30.474Z,49.67
2019-03-23T11:58:37.990Z,48.97
2019-03-23T12:00:45.796Z,46.07
2019-03-23T12:02:54.714Z,36.90
2019-03-23T12:05:03.122Z,43.70
2019-03-23T12:07:10.106Z,42.90
2019-03-23T12:09:16.878Z,38.30
2019-03-23T12:11:23.839Z,38.83
2019-03-23T12:13:30.730Z,42.80
2019-03-23T12:15:38.111Z,39.10
2019-03-23T12:17:46.060Z,38.17
2019-03-23T12:19:52.462Z,42.03
2019-03-23T12:21:59.450Z,40.23
2019-03-23T12:24:06.471Z,40.83
2019-03-23T12:26:13.297Z,39.93
2019-03-23T12:28:20.153Z,45.13
2019-03-23T12:30:28.180Z,38.90
2019-03-23T12:32:34.657Z,40.27
2019-03-23T12:34:42.877Z,38.17
2019-03-23T12:36:49.392Z,37.90
2019-03-23T12:38:55.988Z,40.10
2019-03-23T12:41:14.304Z,42.23
2019-03-23T12:43:12.091Z,39.10
2019-03-23T12:45:20.097Z,39.43
2019-03-23T12:47:27.571Z,39.93
2019-03-23T12:49:34.252Z,40.53
2019-03-23T12:51:40.807Z,41.23
2019-03-23T12:53:47.299Z,38.90
2019-03-23T12:55:55.780Z,41.00
2019-03-23T12:58:03.898Z,42.30
2019-03-23T13:00:17.317Z,41.57
2019-03-23T13:02:24.302Z,40.97
2019-03-23T13:04:32.400Z,41.20
2019-03-23T13:06:39.070Z,40.83
2019-03-23T13:08:46.042Z,42.07
2019-03-23T13:10:52.607Z,43.27
2019-03-23T13:12:59.413Z,53.20
2019-03-23T13:15:09.548Z,46.77
2019-03-23T13:17:16.217Z,41.17
2019-03-23T13:19:23.500Z,42.97
2019-03-23T13:21:30.008Z,40.07
2019-03-23T13:23:36.648Z,42.60
2019-03-23T13:25:43.259Z,41.70
2019-03-23T13:27:51.354Z,41.63
2019-03-23T13:29:58.388Z,45.23
2019-03-23T13:32:04.951Z,41.73
2019-03-23T13:34:11.827Z,42.23
2019-03-23T13:36:20.140Z,46.77
2019-03-23T13:38:28.538Z,46.67
2019-03-23T13:40:35.498Z,40.57
2019-03-23T13:42:42.298Z,47.67
2019-03-23T13:44:48.960Z,38.23
2019-03-23T13:46:55.426Z,45.53
2019-03-23T13:49:01.894Z,41.77
2019-03-23T13:51:09.207Z,51.37
2019-03-23T13:53:16.262Z,45.47
2019-03-23T13:55:34.865Z,42.60
2019-03-23T13:57:41.686Z,42.90
2019-03-23T13:59:49.676Z,49.07
2019-03-23T14:01:57.886Z,46.93
2019-03-23T14:04:04.453Z,54.27
2019-03-23T14:06:11.641Z,49.83
2019-03-23T14:08:18.195Z,50.13
2019-03-23T14:10:27.971Z,49.50
2019-03-23T14:12:34.213Z,48.07
2019-03-23T14:14:41.171Z,50.17
2019-03-23T14:16:49.495Z,49.13
2019-03-23T14:18:56.462Z,49.83
2019-03-23T14:21:04.377Z,50.63
2019-03-23T14:23:11.453Z,49.00
2019-03-23T14:25:18.214Z,48.07
2019-03-23T14:27:25.099Z,49.93
2019-03-23T14:29:31.556Z,48.97
2019-03-23T14:31:39.440Z,49.73
2019-03-23T14:33:46.312Z,46.73
2019-03-23T14:35:55.968Z,56.20
2019-03-23T14:38:02.428Z,54.77
2019-03-23T14:40:12.307Z,48.47
2019-03-23T14:42:18.834Z,52.73
2019-03-23T14:44:25.606Z,53.17
2019-03-23T14:46:32.689Z,71.07
2019-03-23T14:48:39.476Z,51.20
2019-03-23T14:50:46.552Z,57.10
2019-03-23T14:52:53.238Z,53.33
2019-03-23T14:54:59.945Z,51.67
2019-03-23T14:57:06.744Z,61.93
2019-03-23T14:59:13.706Z,53.97
2019-03-23T15:01:20.743Z,58.00
2019-03-23T15:03:28.852Z,54.37
2019-03-23T15:05:36.131Z,62.23
2019-03-23T15:07:43.500Z,56.97
2019-03-23T15:09:50.421Z,60.73
2019-03-23T15:11:58.161Z,59.63
2019-03-23T15:14:05.003Z,57.67
2019-03-23T15:16:12.147Z,64.57
2019-03-23T15:18:19.067Z,70.97
2019-03-23T15:20:25.907Z,62.37
2019-03-23T15:22:33.154Z,72.60
2019-03-23T15:24:39.730Z,61.63
2019-03-23T15:26:46.956Z,62.07
2019-03-23T15:28:53.690Z,52.30
2019-03-23T15:31:00.439Z,57.47
2019-03-23T15:33:09.074Z,55.73
2019-03-23T15:35:15.947Z,54.93
2019-03-23T15:37:22.707Z,52.40
2019-03-23T15:39:29.383Z,50.77
2019-03-23T15:41:36.213Z,49.80
2019-03-23T15:43:43.236Z,49.77
2019-03-23T15:45:49.991Z,51.80
2019-03-23T15:47:56.798Z,49.60
2019-03-23T15:50:03.700Z,53.13
2019-03-23T15:52:10.789Z,49.43
2019-03-23T15:54:20.130Z,59.17
2019-03-23T15:56:27.238Z,54.23
2019-03-23T15:58:33.877Z,49.90
2019-03-23T16:00:40.813Z,56.33
2019-03-23T16:02:51.025Z,56.77
2019-03-23T16:04:58.134Z,50.80
2019-03-23T16:07:04.848Z,58.50
2019-03-23T16:09:16.640Z,50.00
2019-03-23T16:11:23.948Z,51.50
2019-03-23T16:13:31.050Z,50.37
2019-03-23T16:15:40.867Z,59.03
2019-03-23T16:17:48.068Z,61.30
2019-03-23T16:19:54.969Z,61.80
2019-03-23T16:22:02.174Z,56.27
2019-03-23T16:24:09.866Z,51.90
2019-03-23T16:26:18.190Z,57.83
2019-03-23T16:28:25.014Z,45.93
2019-03-23T16:30:34.372Z,46.77
2019-03-23T16:32:41.351Z,50.80
2019-03-23T16:34:48.262Z,48.57
2019-03-23T16:36:56.983Z,52.87
2019-03-23T16:39:06.529Z,49.23
2019-03-23T16:41:13.726Z,42.70
2019-03-23T16:43:21.023Z,42.60
2019-03-23T16:45:29.162Z,46.57
2019-03-23T16:47:37.304Z,87.03
2019-03-23T16:49:44.423Z,63.47
2019-03-23T16:51:51.683Z,54.83
2019-03-23T16:53:58.845Z,46.83
2019-03-23T16:56:05.837Z,40.83
2019-03-23T16:58:16.269Z,45.30
2019-03-23T17:00:26.035Z,37.50
2019-03-23T17:02:33.518Z,37.73
2019-03-23T17:04:40.921Z,35.63
2019-03-23T17:06:48.391Z,39.57
2019-03-23T17:08:55.424Z,74.20
2019-03-23T17:11:02.404Z,43.07
2019-03-23T17:13:09.897Z,74.37
2019-03-23T17:15:17.186Z,45.47
2019-03-23T17:17:23.991Z,47.33
2019-03-23T17:19:31.008Z,29.10
2019-03-23T17:21:39.452Z,33.90
2019-03-23T17:23:46.719Z,46.07
2019-03-23T17:25:54.221Z,42.70
2019-03-23T17:28:01.262Z,42.83
2019-03-23T17:30:10.170Z,51.33
2019-03-23T17:32:17.305Z,57.57
2019-03-23T17:34:24.636Z,56.43
2019-03-23T17:36:33.526Z,57.17
2019-03-23T17:38:40.390Z,56.87
2019-03-23T17:40:47.963Z,62.77
2019-03-23T17:43:05.374Z,52.93
2019-03-23T17:45:06.709Z,76.27
2019-03-23T17:47:14.553Z,48.87
2019-03-23T17:49:21.724Z,59.67
2019-03-23T17:51:28.874Z,62.00
2019-03-23T17:53:37.432Z,55.80
2019-03-23T17:55:44.634Z,65.00
2019-03-23T17:57:51.975Z,55.07
2019-03-23T17:59:58.893Z,69.93
2019-03-23T18:02:06.143Z,60.90
2019-03-23T18:04:14.035Z,64.90
2019-03-23T18:06:21.211Z,53.63
2019-03-23T18:08:28.326Z,67.07
2019-03-23T18:10:35.724Z,66.13
2019-03-23T18:12:42.704Z,65.00
2019-03-23T18:14:49.623Z,51.83
2019-03-23T18:16:56.642Z,60.70
2019-03-23T18:19:03.773Z,59.13
2019-03-23T18:21:10.661Z,51.83
2019-03-23T18:23:18.924Z,58.47
2019-03-23T18:25:26.434Z,56.67
2019-03-23T18:27:33.974Z,44.47
2019-03-23T18:29:40.904Z,43.23
2019-03-23T18:31:48.054Z,42.53
2019-03-23T18:33:55.409Z,38.17
2019-03-23T18:36:03.323Z,39.03
2019-03-23T18:38:10.691Z,36.90
2019-03-23T18:40:18.105Z,36.63
2019-03-23T18:42:25.193Z,33.13
2019-03-23T18:44:32.341Z,31.10
2019-03-23T18:46:39.996Z,30.73
2019-03-23T18:48:48.073Z,21.43
2019-03-23T18:50:55.419Z,24.53
2019-03-23T18:53:05.040Z,26.60
2019-03-23T18:55:12.189Z,24.43
2019-03-23T18:57:19.417Z,26.10
2019-03-23T18:59:27.253Z,24.43
2019-03-23T19:01:34.168Z,26.50
2019-03-23T19:03:41.473Z,29.10
2019-03-23T19:05:48.529Z,29.40
2019-03-23T19:07:55.562Z,26.80
2019-03-23T19:10:02.910Z,24.97
2019-03-23T19:12:10.104Z,26.80
2019-03-23T19:14:17.001Z,28.27
2019-03-23T19:16:24.045Z,20.20
2019-03-23T19:18:31.441Z,23.03
2019-03-23T19:20:39.274Z,19.47
2019-03-23T19:22:45.980Z,18.47
2019-03-23T19:25:01.545Z,18.30
2019-03-23T19:27:08.639Z,16.00
2019-03-23T19:29:16.891Z,19.03
2019-03-23T19:31:25.268Z,18.57
2019-03-23T19:33:32.643Z,19.47
2019-03-23T19:35:39.894Z,16.73
2019-03-23T19:37:46.721Z,16.30
2019-03-23T19:39:53.642Z,17.77
2019-03-23T19:42:00.537Z,17.47
2019-03-23T19:44:09.681Z,16.70
2019-03-23T19:46:16.833Z,20.20
2019-03-23T19:48:23.747Z,24.13
2019-03-23T19:50:30.543Z,21.67
2019-03-23T19:52:38.356Z,22.17
2019-03-23T19:54:46.253Z,23.07
2019-03-23T19:56:53.004Z,23.63
2019-03-23T19:59:00.001Z,21.77
2019-03-23T20:01:07.442Z,19.33
2019-03-23T20:03:14.771Z,22.07
2019-03-23T20:05:23.411Z,17.37
2019-03-23T20:07:33.437Z,17.43
2019-03-23T20:09:42.410Z,19.73
2019-03-23T20:11:52.434Z,15.13
2019-03-23T20:14:03.033Z,19.83
2019-03-23T20:16:10.193Z,19.97
2019-03-23T20:18:17.972Z,22.43
2019-03-23T20:20:26.392Z,20.93
2019-03-23T20:22:34.492Z,23.27
2019-03-23T20:24:43.662Z,23.20
2019-03-23T20:26:51.248Z,26.47
2019-03-23T20:28:59.434Z,22.30
2019-03-23T20:31:06.703Z,27.13
2019-03-23T20:33:19.400Z,24.53
2019-03-23T20:35:46.512Z,24.57
2019-03-23T20:37:56.323Z,27.83
2019-03-23T20:40:06.824Z,28.80
2019-03-23T20:42:14.277Z,22.17
2019-03-23T20:44:22.446Z,24.10
2019-03-23T20:46:29.398Z,27.23
2019-03-23T20:48:38.392Z,25.80
2019-03-23T20:50:45.888Z,25.07
2019-03-23T20:52:53.571Z,27.43
2019-03-23T20:55:00.492Z,31.07
2019-03-23T20:57:07.594Z,28.87
2019-03-23T20:59:14.594Z,30.70
2019-03-23T21:01:21.651Z,29.53
2019-03-23T21:03:28.207Z,26.83
2019-03-23T21:05:35.590Z,26.73
2019-03-23T21:07:42.811Z,22.33
2019-03-23T21:09:49.672Z,24.33
2019-03-23T21:11:56.532Z,33.77
2019-03-23T21:14:04.113Z,31.63
2019-03-23T21:16:12.070Z,20.07
2019-03-23T21:18:19.300Z,26.43
2019-03-23T21:20:26.471Z,29.90
2019-03-23T21:22:34.727Z,26.07
2019-03-23T21:24:41.689Z,25.43
2019-03-23T21:26:48.634Z,32.97
2019-03-23T21:28:55.468Z,26.70
2019-03-23T21:31:05.175Z,27.73
2019-03-23T21:33:13.955Z,30.23
2019-03-23T21:35:21.031Z,30.80
2019-03-23T21:37:28.118Z,30.57
2019-03-23T21:39:35.932Z,29.03
2019-03-23T21:41:43.051Z,24.07
2019-03-23T21:43:50.632Z,27.20
2019-03-23T21:45:58.470Z,28.57
2019-03-23T21:48:05.626Z,29.33
2019-03-23T21:50:13.314Z,28.23
2019-03-23T21:52:20.971Z,27.27
2019-03-23T21:54:28.112Z,24.13
2019-03-23T21:56:35.093Z,32.37
2019-03-23T21:58:43.732Z,26.20
2019-03-23T22:00:50.952Z,31.30
2019-03-23T22:03:00.052Z,31.20
2019-03-23T22:05:09.831Z,31.53
2019-03-23T22:07:18.111Z,26.43
2019-03-23T22:09:25.051Z,33.83
2019-03-23T22:11:32.111Z,31.33
2019-03-23T22:13:38.854Z,30.03
2019-03-23T22:15:47.406Z,24.57
2019-03-23T22:17:55.000Z,29.97
2019-03-23T22:20:01.921Z,27.37
2019-03-23T22:22:08.936Z,29.33
2019-03-23T22:24:15.697Z,29.63
2019-03-23T22:26:22.052Z,30.90
2019-03-23T22:28:28.988Z,33.83
2019-03-23T22:30:35.269Z,29.13
2019-03-23T22:32:42.241Z,27.00
2019-03-23T22:34:49.422Z,27.63
2019-03-23T22:36:58.536Z,31.07
2019-03-23T22:39:07.189Z,28.03
2019-03-23T22:41:15.194Z,28.03
2019-03-23T22:43:25.801Z,26.23
2019-03-23T22:45:35.862Z,28.23
2019-03-23T22:47:43.692Z,26.03
2019-03-23T22:49:50.323Z,33.83
2019-03-23T22:51:56.791Z,29.03
2019-03-23T22:54:03.898Z,27.73
2019-03-23T22:56:10.776Z,29.67
2019-03-23T22:58:19.489Z,25.90
2019-03-23T23:00:27.668Z,28.03
2019-03-23T23:02:35.959Z,29.83
2019-03-23T23:04:42.561Z,39.60
2019-03-23T23:06:49.228Z,28.70
2019-03-23T23:08:55.603Z,30.53
2019-03-23T23:11:02.252Z,28.23
2019-03-23T23:13:10.439Z,30.00
2019-03-23T23:15:17.140Z,30.73
2019-03-23T23:17:24.111Z,32.17
2019-03-23T23:19:30.472Z,35.03
2019-03-23T23:21:38.381Z,27.93
2019-03-23T23:23:44.841Z,32.27
2019-03-23T23:25:51.701Z,34.13
2019-03-23T23:27:58.795Z,34.83
2019-03-23T23:30:08.536Z,33.40
2019-03-23T23:32:15.411Z,29.90
2019-03-23T23:34:22.819Z,31.57
2019-03-23T23:36:35.461Z,32.70
2019-03-23T23:38:43.921Z,32.33
2019-03-23T23:40:50.704Z,35.07
2019-03-23T23:42:57.271Z,33.90
2019-03-23T23:45:14.842Z,33.50
2019-03-23T23:47:17.448Z,32.63
2019-03-23T23:49:25.059Z,29.60
2019-03-23T23:51:32.849Z,41.03
2019-03-23T23:53:39.608Z,32.57
2019-03-23T23:55:45.991Z,36.90
2019-03-23T23:57:53.782Z,33.60
